Time;durP1;ratioP1;P1;durP2;ratioP2;P2;SDS_P1;SDS_P2;PMS_P1;PMS_P2;Temp;Humidity;BMP_temperature;BMP_pressure;BME280_temperature;BME280_humidity;BME280_pressure;Samples;Min_cycle;Max_cycle;Signal;HPM_P1;HPM_P2
2022/07/03 00:01:00;;;;;;;9.15;4.82;;;;;;;;;;5013954;28;20026;-82
2022/07/03 00:03:26;;;;;;;11.27;5.15;;;;;;;;;;4997990;28;20022;-81
2022/07/03 00:05:52;;;;;;;10.82;4.93;;;563.80;2227.20;;;;;;5013636;28;20481;-82
2022/07/03 00:08:18;;;;;;;8.70;5.07;;;;;;;;;;5014083;28;20053;-81
2022/07/03 00:10:44;;;;;;;12.27;4.25;;;;;;;;;;5013372;28;20036;-81
2022/07/03 00:13:10;;;;;;;8.50;4.65;;;;;;;;;;5013572;28;20021;-82
2022/07/03 00:15:36;;;;;;;7.95;4.55;;;564.10;2124.80;;;;;;5013351;28;20484;-82
2022/07/03 00:18:02;;;;;;;12.75;8.93;;;564.00;2176.00;;;;;;5013731;28;20087;-82
2022/07/03 00:20:35;;;;;;;9.63;7.40;;;563.90;2227.20;;;;;;5013493;28;20029;-81
2022/07/03 00:23:06;;;;;;;12.73;5.47;;;563.90;2201.60;;;;;;5004994;28;20084;-81
2022/07/03 00:25:33;;;;;;;10.55;4.57;;;563.80;2227.20;;;;;;4999447;28;20033;-81
2022/07/03 00:27:59;;;;;;;12.93;5.72;;;563.80;2252.80;;;;;;5013674;28;20025;-85
2022/07/03 00:30:26;;;;;;;11.57;6.05;;;563.70;2278.40;;;;;;5013251;28;20124;-80
2022/07/03 00:32:53;;;;;;;11.20;4.18;;;563.60;2329.60;;;;;;5030614;28;20021;-80
2022/07/03 00:35:19;;;;;;;12.88;5.18;;;563.70;2304.00;;;;;;5030960;28;20044;-84
2022/07/03 00:37:46;;;;;;;7.85;4.80;;;563.60;2304.00;;;;;;5013460;28;20033;-80
2022/07/03 00:40:11;;;;;;;9.30;5.22;;;563.50;2355.20;;;;;;5015005;28;20017;-83
2022/07/03 00:42:39;;;;;;;8.80;4.65;;;563.50;2355.20;;;;;;5014859;28;20095;-79
2022/07/03 00:45:08;;;;;;;8.32;3.85;;;563.70;2278.40;;;;;;5014801;28;20028;-80
2022/07/03 00:47:36;;;;;;;8.55;5.75;;;563.50;2329.60;;;;;;5014227;28;20028;-80
2022/07/03 00:50:08;;;;;;;9.88;6.88;;;563.40;2329.60;;;;;;5004648;28;20100;-79
2022/07/03 00:52:37;;;;;;;13.25;9.63;;;563.40;2329.60;;;;;;4997080;28;20469;-81
2022/07/03 00:55:07;;;;;;;11.45;10.05;;;563.60;2278.40;;;;;;5014403;28;20088;-79
2022/07/03 00:57:33;;;;;;;9.18;5.35;;;;;;;;;;5014467;28;20442;-80
2022/07/03 01:00:00;;;;;;;12.43;6.57;;;;;;;;;;5014435;28;20400;-79
2022/07/03 01:02:29;;;;;;;10.38;5.38;;;;;;;;;;5014420;28;20022;-80
2022/07/03 01:05:07;;;;;;;6.75;5.20;;;;;;;;;;5018549;28;20060;-80
2022/07/03 01:07:36;;;;;;;8.82;4.97;;;;;;;;;;5014250;28;20029;-80
2022/07/03 01:10:05;;;;;;;8.05;4.82;;;;;;;;;;5014168;28;20037;-81
2022/07/03 01:12:44;;;;;;;9.27;5.50;;;;;;;;;;5001748;28;20026;-82
2022/07/03 01:15:10;;;;;;;15.82;12.05;;;;;;;;;;5018349;28;20120;-79
2022/07/03 01:17:40;;;;;;;10.52;6.20;;;;;;;;;;5031536;28;20026;-79
2022/07/03 01:20:07;;;;;;;7.72;6.50;;;;;;;;;;5031806;28;20028;-80
2022/07/03 01:22:43;;;;;;;10.60;6.43;;;;;;;;;;5013906;28;20021;-79
2022/07/03 01:25:09;;;;;;;13.27;6.25;;;;;;;;;;5010468;28;20137;-80
2022/07/03 01:27:42;;;;;;;12.35;9.25;;;;;;;;;;5023063;28;20021;-78
2022/07/03 01:30:10;;;;;;;9.45;5.25;;;;;;;;;;5026919;28;20508;-80
2022/07/03 01:32:42;;;;;;;9.20;5.00;;;;;;;;;;5017737;28;20021;-81
2022/07/03 01:35:08;;;;;;;16.10;6.57;;;;;;;;;;5014108;28;20033;-81
2022/07/03 01:37:35;;;;;;;6.82;5.25;;;;;;;;;;5010723;28;20026;-84
2022/07/03 01:40:03;;;;;;;12.38;5.80;;;;;;;;;;5005438;28;20490;-80
2022/07/03 01:42:30;;;;;;;13.20;7.85;;;;;;;;;;4999974;28;20049;-83
2022/07/03 01:44:58;;;;;;;8.27;5.20;;;;;;;;;;5014000;28;20071;-81
2022/07/03 01:47:25;;;;;;;9.32;5.65;;;;;;;;;;5013979;28;20036;-81
2022/07/03 01:49:52;;;;;;;8.30;5.10;;;;;;;;;;5031737;28;20133;-82
2022/07/03 01:52:19;;;;;;;9.43;5.57;;;;;;;;;;5013979;28;20068;-83
2022/07/03 01:54:46;;;;;;;11.70;5.95;;;;;;;;;;5014045;28;20436;-79
2022/07/03 01:57:12;;;;;;;12.23;9.00;;;;;;;;;;5031174;28;20055;-81
2022/07/03 01:59:38;;;;;;;9.10;5.22;;;;;;;;;;5013595;28;20029;-80
2022/07/03 02:02:23;;;;;;;9.32;4.82;;;;;;;;;;5031207;28;20049;-81
2022/07/03 02:05:00;;;;;;;7.60;4.25;;;;;;;;;;5013268;28;20026;-79
2022/07/03 02:07:32;;;;;;;11.27;5.57;;;;;;;;;;5013780;28;20057;-80
2022/07/03 02:10:08;;;;;;;8.52;4.85;;;;;;;;;;5013370;28;20030;-81
2022/07/03 02:12:37;;;;;;;13.23;5.47;;;;;;;;;;5013296;28;20112;-80
2022/07/03 02:15:05;;;;;;;7.45;4.30;;;;;;;;;;4999459;28;20052;-81
2022/07/03 02:17:41;;;;;;;14.45;6.70;;;;;;;;;;5031176;28;20017;-79
2022/07/03 02:20:09;;;;;;;7.10;4.90;;;;;;;;;;5013447;28;20025;-81
2022/07/03 02:22:38;;;;;;;10.98;4.85;;;;;;;;;;5031286;28;20018;-80
2022/07/03 02:25:06;;;;;;;11.55;6.75;;;;;;;;;;5013249;28;20017;-80
2022/07/03 02:27:33;;;;;;;8.07;4.82;;;;;;;;;;5013531;28;20022;-79
2022/07/03 02:30:04;;;;;;;10.27;5.07;;;;;;;;;;5013520;28;20044;-80
2022/07/03 02:32:32;;;;;;;9.05;4.95;;;;;;;;;;5013303;28;20067;-79
2022/07/03 02:35:01;;;;;;;10.57;5.32;;;;;;;;;;5010063;28;20470;-83
2022/07/03 02:37:29;;;;;;;9.02;4.75;;;;;;;;;;5007984;28;20061;-81
2022/07/03 02:40:01;;;;;;;8.95;5.05;;;;;;;;;;5003698;28;20037;-81
2022/07/03 02:42:46;;;;;;;11.27;5.95;;;;;;;;;;5013459;28;20025;-81
2022/07/03 02:45:12;;;;;;;7.75;5.18;;;;;;;;;;5032537;28;20021;-81
2022/07/03 02:47:41;;;;;;;9.13;5.47;;;;;;;;;;5013221;28;20030;-81
2022/07/03 02:50:11;;;;;;;13.05;5.97;;;;;;;;;;5007422;28;20389;-82
2022/07/03 02:52:44;;;;;;;7.78;5.50;;;;;;;;;;5016151;28;20035;-81
2022/07/03 02:55:28;;;;;;;12.27;6.85;;;;;;;;;;5016758;28;20036;-81
2022/07/03 02:58:24;;;;;;;12.98;7.30;;;;;;;;;;5012223;28;20018;-78
2022/07/03 03:00:59;;;;;;;10.30;6.20;;;;;;;;;;5012609;28;20069;-89
2022/07/03 03:03:30;;;;;;;64.30;41.67;;;;;;;;;;5017519;28;20017;-87
2022/07/03 03:05:57;;;;;;;37.97;28.27;;;;;;;;;;5016949;28;20033;-88
2022/07/03 03:08:23;;;;;;;48.97;34.47;;;;;;;;;;5009015;28;20060;-90
2022/07/03 03:10:56;;;;;;;23.20;15.13;;;;;;;;;;5005146;28;20096;-87
2022/07/03 03:13:23;;;;;;;17.37;9.13;;;;;;;;;;5018924;28;20031;-88
2022/07/03 03:15:59;;;;;;;20.92;13.45;;;;;;;;;;5005757;28;20770;-88
2022/07/03 03:18:27;;;;;;;20.88;13.20;;;;;;;;;;5016798;28;20029;-91
2022/07/03 03:20:56;;;;;;;17.45;9.57;;;;;;;;;;5017632;28;20116;-91
2022/07/03 03:23:34;;;;;;;13.23;6.18;;;;;;;;;;5014220;28;20058;-90
2022/07/03 03:26:00;;;;;;;18.48;10.30;;;;;;;;;;5010010;28;20025;-91
2022/07/03 03:28:26;;;;;;;38.05;21.80;;;;;;;;;;5014528;28;20077;-89
2022/07/03 03:30:52;;;;;;;18.10;12.73;;;;;;;;;;5008887;28;20388;-89
2022/07/03 03:33:19;;;;;;;10.60;6.13;;;;;;;;;;5017666;28;20032;-80
2022/07/03 03:35:45;;;;;;;19.33;12.15;;;;;;;;;;5033634;28;20030;-80
2022/07/03 03:38:12;;;;;;;12.10;6.72;;;;;;;;;;5005678;28;20041;-80
2022/07/03 03:40:38;;;;;;;13.82;6.00;;;563.50;2048.00;;;;;;5016200;28;20029;-81
2022/07/03 03:43:04;;;;;;;20.63;13.85;;;538.50;2099.20;;;;;;5033681;28;20469;-81
2022/07/03 03:45:30;;;;;;;9.68;5.70;;;538.20;2201.60;;;;;;5012602;28;20033;-81
2022/07/03 03:47:56;;;;;;;10.88;6.05;;;537.70;2329.60;;;;;;5015716;28;20025;-81
2022/07/03 03:50:23;;;;;;;15.95;7.90;;;537.60;2380.80;;;;;;5021353;28;20100;-80
2022/07/03 03:52:49;;;;;;;8.35;6.20;;;537.60;2406.40;;;;;;5017399;28;20022;-79
2022/07/03 03:55:14;;;;;;;12.70;6.63;;;512.70;2380.80;;;;;;5015322;28;20048;-81
2022/07/03 03:57:40;;;;;;;9.73;6.80;;;512.80;2380.80;;;;;;5015311;28;20025;-81
2022/07/03 04:00:07;;;;;;;23.85;15.45;;;512.60;2380.80;;;;;;5012299;28;20484;-79
2022/07/03 04:02:33;;;;;;;24.13;14.98;;;512.70;2380.80;;;;;;5027420;28;20053;-82
2022/07/03 04:04:59;;;;;;;11.38;6.68;;;512.80;2380.80;;;;;;5026580;28;20034;-79
2022/07/03 04:07:25;;;;;;;11.68;7.00;;;537.60;2406.40;;;;;;5025894;28;20412;-79
2022/07/03 04:09:51;;;;;;;14.23;8.27;;;;;;;;;;5032890;28;20014;-81
2022/07/03 04:12:17;;;;;;;10.35;6.22;;;538.20;2380.80;;;;;;5032841;28;20049;-79
2022/07/03 04:14:43;;;;;;;9.23;7.07;;;;;;;;;;5001512;28;20048;-78
2022/07/03 04:17:09;;;;;;;15.30;6.53;;;538.40;2278.40;;;;;;5024165;28;20477;-79
2022/07/03 04:19:34;;;;;;;12.60;6.75;;;538.20;2329.60;;;;;;5009767;28;20036;-79
2022/07/03 04:22:00;;;;;;;13.80;7.20;;;538.20;2380.80;;;;;;5032810;28;20025;-78
2022/07/03 04:24:26;;;;;;;10.27;6.07;;;538.30;2329.60;;;;;;5019885;28;20125;-78
2022/07/03 04:26:52;;;;;;;11.45;6.93;;;;;;;;;;5031421;28;20021;-78
2022/07/03 04:29:17;;;;;;;9.70;7.20;;;563.20;2329.60;;;;;;5021626;28;20481;-78
2022/07/03 04:31:43;;;;;;;28.35;14.57;;;538.50;2329.60;;;;;;5012555;28;20022;-78
2022/07/03 04:34:09;;;;;;;8.98;7.13;;;538.40;2380.80;;;;;;5031302;28;20072;-78
2022/07/03 04:36:35;;;;;;;9.18;6.82;;;538.40;2380.80;;;;;;5021566;28;20500;-79
2022/07/03 04:39:00;;;;;;;10.30;6.45;;;538.40;2406.40;;;;;;5028827;28;20029;-78
2022/07/03 04:41:26;;;;;;;10.45;6.38;;;538.50;2380.80;;;;;;5006170;28;20021;-78
2022/07/03 04:43:52;;;;;;;11.65;8.65;;;563.30;2355.20;;;;;;5012791;28;20030;-78
2022/07/03 04:46:17;;;;;;;16.88;8.48;;;563.40;2355.20;;;;;;5014664;28;20021;-78
2022/07/03 04:48:43;;;;;;;15.05;10.55;;;563.50;2380.80;;;;;;5032184;28;20937;-82
2022/07/03 04:51:09;;;;;;;13.25;6.55;;;563.70;2252.80;;;;;;5032766;28;20042;-83
2022/07/03 04:53:34;;;;;;;13.98;8.65;;;563.90;2227.20;;;;;;5015325;28;20029;-82
2022/07/03 04:56:00;;;;;;;16.73;6.55;;;;;;;;;;5001214;28;20390;-82
2022/07/03 04:58:26;;;;;;;11.55;7.03;;;588.80;2150.40;;;;;;5015123;28;20017;-85
2022/07/03 05:00:52;;;;;;;9.25;7.03;;;;;;;;;;5015440;28;20033;-88
2022/07/03 05:03:18;;;;;;;11.95;7.60;;;;;;;;;;5015487;28;20104;-89
2022/07/03 05:05:44;;;;;;;11.52;8.48;;;;;;;;;;5015287;28;20037;-84
2022/07/03 05:08:10;;;;;;;10.93;8.32;;;;;;;;;;5014070;28;20460;-87
2022/07/03 05:10:36;;;;;;;12.07;6.85;;;;;;;;;;5011969;28;20069;-86
2022/07/03 05:13:02;;;;;;;18.30;8.55;;;;;;;;;;5012260;28;20018;-90
2022/07/03 05:15:28;;;;;;;13.52;8.48;;;;;;;;;;5011472;28;20045;-83
2022/07/03 05:17:54;;;;;;;15.32;8.95;;;;;;;;;;4995993;28;20037;-85
2022/07/03 05:20:23;;;;;;;14.32;10.05;;;;;;;;;;5032308;28;20025;-86
2022/07/03 05:22:50;;;;;;;17.20;12.75;;;;;;;;;;5015181;28;20025;-85
2022/07/03 05:25:16;;;;;;;21.90;18.50;;;;;;;;;;5014630;28;20393;-81
2022/07/03 05:27:42;;;;;;;12.48;9.05;;;;;;;;;;5031953;28;20034;-85
2022/07/03 05:30:08;;;;;;;11.48;9.20;;;;;;;;;;5001513;28;20511;-79
2022/07/03 05:32:34;;;;;;;14.40;9.93;;;;;;;;;;5008456;28;20014;-82
2022/07/03 05:35:00;;;;;;;16.00;11.38;;;;;;;;;;5006124;28;20022;-82
2022/07/03 05:37:27;;;;;;;13.57;8.65;;;;;;;;;;5031463;28;20469;-82
2022/07/03 05:39:53;;;;;;;10.80;8.13;;;;;;;;;;5013900;28;20503;-83
2022/07/03 05:42:19;;;;;;;11.95;8.10;;;;;;;;;;5014113;28;20388;-82
2022/07/03 05:44:45;;;;;;;20.95;13.25;;;;;;;;;;5014127;28;20033;-82
2022/07/03 05:47:11;;;;;;;10.90;7.28;;;;;;;;;;5013822;28;20022;-83
2022/07/03 05:49:37;;;;;;;17.77;8.55;;;;;;;;;;5000481;28;20445;-83
2022/07/03 05:52:03;;;;;;;13.75;8.65;;;;;;;;;;5013912;28;20111;-83
2022/07/03 05:54:29;;;;;;;19.10;8.68;;;;;;;;;;5013892;28;20021;-82
2022/07/03 05:56:55;;;;;;;14.60;11.77;;;;;;;;;;5013979;28;20036;-81
2022/07/03 05:59:21;;;;;;;10.27;7.82;;;;;;;;;;4999903;28;20056;-82
2022/07/03 06:01:47;;;;;;;19.58;15.48;;;;;;;;;;5031486;28;20035;-81
2022/07/03 06:04:13;;;;;;;25.25;18.05;;;;;;;;;;5013175;28;20037;-82
2022/07/03 06:06:39;;;;;;;14.50;9.85;;;;;;;;;;5018130;28;20361;-81
2022/07/03 06:09:06;;;;;;;26.27;17.40;;;;;;;;;;5001314;28;20473;-82
2022/07/03 06:11:32;;;;;;;24.23;20.25;;;;;;;;;;5012417;28;20117;-82
2022/07/03 06:13:58;;;;;;;52.60;47.03;;;;;;;;;;5013753;28;20025;-82
2022/07/03 06:16:24;;;;;;;16.58;8.77;;;;;;;;;;5013679;28;20021;-82
2022/07/03 06:18:50;;;;;;;23.45;21.13;;;;;;;;;;5032231;28;20104;-83
2022/07/03 06:21:16;;;;;;;15.10;9.48;;;;;;;;;;5017619;28;20033;-83
2022/07/03 06:23:43;;;;;;;17.15;12.35;;;;;;;;;;5017428;28;20025;-83
2022/07/03 06:26:09;;;;;;;35.45;28.35;;;;;;;;;;5017523;28;20037;-82
2022/07/03 06:28:35;;;;;;;26.98;22.58;;;;;;;;;;5017379;28;20109;-82
2022/07/03 06:31:03;;;;;;;14.02;11.32;;;;;;;;;;5010449;28;20054;-82
2022/07/03 06:33:29;;;;;;;24.42;16.38;;;;;;;;;;4997428;28;20034;-83
2022/07/03 06:35:55;;;;;;;23.85;16.10;;;;;;;;;;5011883;28;20030;-83
2022/07/03 06:38:21;;;;;;;18.83;14.20;;;;;;;;;;5025276;28;20084;-82
2022/07/03 06:40:47;;;;;;;11.35;6.70;;;;;;;;;;5003221;28;20022;-82
2022/07/03 06:43:13;;;;;;;14.32;8.93;;;;;;;;;;5034797;28;20026;-82
2022/07/03 06:45:39;;;;;;;10.00;6.45;;;;;;;;;;5033033;28;20069;-82
2022/07/03 06:48:05;;;;;;;17.25;11.60;;;;;;;;;;4996953;28;20442;-82
2022/07/03 06:50:32;;;;;;;10.80;7.00;;;;;;;;;;5016643;28;20489;-83
2022/07/03 06:52:58;;;;;;;11.05;7.10;;;;;;;;;;5017055;28;20045;-82
2022/07/03 06:55:24;;;;;;;16.38;9.70;;;;;;;;;;5013708;28;20041;-82
2022/07/03 06:57:50;;;;;;;11.73;8.43;;;;;;;;;;5014417;28;20104;-83
2022/07/03 07:00:16;;;;;;;16.67;8.68;;;;;;;;;;5016708;28;20172;-82
2022/07/03 07:02:42;;;;;;;10.05;6.47;;;;;;;;;;5014743;28;20030;-83
2022/07/03 07:05:08;;;;;;;13.88;6.45;;;;;;;;;;5004595;28;20072;-82
2022/07/03 07:07:34;;;;;;;9.90;6.65;;;;;;;;;;5016524;28;20025;-83
2022/07/03 07:10:00;;;;;;;9.82;7.57;;;;;;;;;;5016709;28;20524;-81
2022/07/03 07:12:26;;;;;;;11.18;6.75;;;;;;;;;;5013154;28;20425;-83
2022/07/03 07:14:52;;;;;;;14.50;7.53;;;;;;;;;;5014808;28;20024;-83
2022/07/03 07:17:18;;;;;;;14.48;9.05;;;;;;;;;;5034293;28;20099;-83
2022/07/03 07:19:44;;;;;;;12.55;7.22;;;;;;;;;;5016487;28;20075;-83
2022/07/03 07:22:10;;;;;;;20.17;10.38;;;;;;;;;;5016432;28;20091;-82
2022/07/03 07:24:37;;;;;;;10.82;6.25;;;;;;;;;;5016148;28;20392;-82
2022/07/03 07:27:03;;;;;;;15.57;10.57;;;;;;;;;;5016233;28;20072;-82
2022/07/03 07:29:29;;;;;;;9.63;7.25;;;;;;;;;;5016238;28;20108;-83
2022/07/03 07:31:55;;;;;;;12.43;7.95;;;;;;;;;;5015349;28;20022;-83
2022/07/03 07:34:21;;;;;;;9.52;6.05;;;;;;;;;;5016187;28;20096;-82
2022/07/03 07:36:47;;;;;;;15.30;7.60;;;;;;;;;;5016039;28;20025;-83
2022/07/03 07:39:13;;;;;;;13.32;6.95;;;;;;;;;;5002120;28;20045;-82
2022/07/03 07:41:39;;;;;;;13.13;7.65;;;;;;;;;;5033769;28;20026;-83
2022/07/03 07:44:05;;;;;;;14.80;7.28;;;;;;;;;;5001958;28;20096;-82
2022/07/03 07:46:32;;;;;;;12.43;7.00;;;;;;;;;;5015776;28;20108;-82
2022/07/03 07:48:58;;;;;;;10.40;6.43;;;;;;;;;;5015606;28;20021;-82
2022/07/03 07:51:24;;;;;;;11.48;6.15;;;;;;;;;;5015585;28;20045;-81
2022/07/03 07:53:52;;;;;;;12.27;7.57;;;;;;;;;;5033608;28;20037;-82
2022/07/03 07:56:18;;;;;;;11.63;6.25;;;;;;;;;;5015595;28;20024;-81
2022/07/03 07:58:44;;;;;;;12.05;6.38;;;;;;;;;;5012331;28;20029;-81
2022/07/03 08:06:39;;;;;;;14.18;6.82;;;;;;;;;;5019675;28;20040;-82
2022/07/03 08:09:05;;;;;;;11.70;6.40;;;;;;;;;;5015037;28;20045;-82
2022/07/03 08:11:31;;;;;;;13.95;6.32;;;;;;;;;;5015202;28;20033;-81
2022/07/03 08:13:57;;;;;;;14.98;7.82;;;;;;;;;;5015150;28;20075;-81
2022/07/03 08:16:23;;;;;;;10.30;5.80;;;;;;;;;;5032850;28;20052;-81
2022/07/03 08:18:49;;;;;;;13.60;5.00;;;;;;;;;;5033128;28;20036;-81
2022/07/03 08:21:16;;;;;;;11.60;7.40;;;;;;;;;;5015066;28;20021;-80
2022/07/03 08:23:44;;;;;;;11.02;6.32;;;;;;;;;;5032692;28;20598;-80
2022/07/03 08:26:10;;;;;;;10.80;5.70;;;;;;;;;;5015021;28;20431;-81
2022/07/03 08:28:36;;;;;;;8.88;6.10;;;;;;;;;;5033056;28;20014;-81
2022/07/03 08:31:02;;;;;;;12.57;6.28;;;;;;;;;;5015154;28;20018;-82
2022/07/03 08:33:28;;;;;;;12.88;7.47;;;;;;;;;;5011698;28;20459;-81
2022/07/03 08:35:54;;;;;;;12.23;6.70;;;;;;;;;;5026698;28;20021;-82
2022/07/03 08:38:23;;;;;;;13.45;6.80;;;;;;;;;;5003107;28;20028;-81
2022/07/03 08:40:50;;;;;;;14.05;6.03;;;;;;;;;;5012402;28;20020;-81
2022/07/03 08:43:17;;;;;;;12.68;6.78;;;;;;;;;;5031539;28;20033;-81
2022/07/03 08:45:43;;;;;;;15.90;6.95;;;;;;;;;;5032030;28;20065;-82
2022/07/03 08:48:10;;;;;;;13.10;7.00;;;;;;;;;;5014750;28;20366;-81
2022/07/03 08:50:36;;;;;;;12.82;7.40;;;;;;;;;;5018234;28;20045;-82
2022/07/03 08:53:03;;;;;;;14.75;6.32;;;;;;;;;;5011308;28;20025;-81
2022/07/03 08:55:29;;;;;;;14.90;6.57;;;;;;;;;;5006985;28;20460;-82
2022/07/03 08:57:56;;;;;;;8.98;5.93;;;;;;;;;;5014240;28;20580;-81
2022/07/03 09:00:22;;;;;;;9.13;6.57;;;;;;;;;;5014521;28;20021;-77
2022/07/03 09:02:49;;;;;;;7.68;5.72;;;;;;;;;;5017791;28;20370;-79
2022/07/03 09:05:16;;;;;;;9.68;5.85;;;;;;;;;;5032100;28;20037;-78
2022/07/03 09:07:43;;;;;;;16.08;5.55;;;;;;;;;;5016959;28;20038;-78
2022/07/03 09:10:11;;;;;;;14.80;8.23;;;;;;;;;;5019464;28;20035;-78
2022/07/03 09:12:37;;;;;;;13.65;6.75;;;;;;;;;;5031696;28;20017;-78
2022/07/03 09:15:04;;;;;;;10.02;6.07;;;;;;;;;;5032070;28;20079;-78
2022/07/03 09:17:31;;;;;;;9.55;6.25;;;;;;;;;;5032198;28;20044;-78
2022/07/03 09:20:05;;;;;;;13.80;6.18;;;;;;;;;;5017860;28;20014;-79
2022/07/03 09:22:33;;;;;;;7.90;6.05;;;;;;;;;;5010843;28;20025;-80
2022/07/03 09:25:07;;;;;;;12.98;6.85;;;;;;;;;;5027218;28;20048;-80
2022/07/03 09:27:33;;;;;;;14.10;6.38;;;;;;;;;;5023052;28;20056;-79
2022/07/03 09:30:00;;;;;;;8.57;5.55;;;;;;;;;;5031401;28;20035;-78
2022/07/03 09:32:34;;;;;;;15.07;6.00;;;;;;;;;;5031818;28;20014;-79
2022/07/03 09:35:14;;;;;;;18.38;7.78;;;;;;;;;;5031912;28;20029;-78
2022/07/03 09:37:40;;;;;;;11.63;7.10;;;;;;;;;;5031203;28;20025;-78
2022/07/03 09:40:07;;;;;;;12.18;6.30;;;;;;;;;;5031423;28;20385;-78
2022/07/03 09:42:33;;;;;;;10.68;6.15;;;;;;;;;;5022191;28;20022;-79
2022/07/03 09:44:59;;;;;;;11.57;6.57;;;;;;;;;;5017217;28;20037;-78
2022/07/03 09:47:25;;;;;;;11.05;6.55;;;;;;;;;;5031687;28;20048;-78
2022/07/03 09:50:18;;;;;;;9.80;6.60;;;;;;;;;;5013600;28;20081;-80
2022/07/03 09:52:48;;;;;;;7.60;6.27;;;;;;;;;;5026947;28;20179;-79
2022/07/03 09:55:15;;;;;;;9.98;5.95;;;;;;;;;;5034638;28;20500;-79
2022/07/03 09:58:02;;;;;;;12.25;6.95;;;;;;;;;;5024957;28;20022;-79
2022/07/03 10:00:29;;;;;;;14.98;7.15;;;;;;;;;;5035270;28;20056;-79
2022/07/03 10:02:55;;;;;;;9.73;6.40;;;;;;;;;;5035103;28;20029;-78
2022/07/03 10:05:41;;;;;;;9.95;5.97;;;;;;;;;;5035306;28;20026;-78
2022/07/03 10:08:11;;;;;;;15.68;6.45;;;;;;;;;;5022756;28;20030;-78
2022/07/03 10:10:38;;;;;;;13.80;6.15;;;;;;;;;;5021064;28;20021;-79
2022/07/03 10:13:05;;;;;;;14.40;7.32;;;;;;;;;;5014356;28;20025;-81
2022/07/03 10:15:32;;;;;;;18.58;6.43;;;;;;;;;;5014950;28;20105;-82
2022/07/03 10:17:59;;;;;;;9.60;6.03;;;;;;;;;;5015376;28;20021;-80
2022/07/03 10:20:37;;;;;;;12.30;7.07;;;;;;;;;;5004891;28;20026;-81
2022/07/03 10:23:03;;;;;;;12.25;6.35;;;;;;;;;;5025304;28;20108;-80
2022/07/03 10:25:30;;;;;;;16.98;6.40;;;;;;;;;;5034342;28;20481;-81
2022/07/03 10:27:56;;;;;;;16.05;6.35;;;;;;;;;;5027014;28;20026;-81
2022/07/03 10:30:23;;;;;;;10.25;5.90;;;;;;;;;;5009495;28;20014;-80
2022/07/03 10:32:50;;;;;;;13.82;7.53;;;;;;;;;;5034947;28;20025;-78
2022/07/03 10:35:19;;;;;;;15.88;7.03;;;;;;;;;;5034629;28;20025;-78
2022/07/03 10:37:50;;;;;;;14.57;7.55;;;;;;;;;;5034987;28;20025;-78
2022/07/03 10:46:06;;;;;;;;;;;;;;;;;;5034560;28;20049;-77
2022/07/03 10:48:50;;;;;;;8.77;5.65;;;;;;;;;;5034143;28;19905;-77
2022/07/03 10:51:16;;;;;;;11.27;5.45;;;;;;;;;;5020368;28;20396;-78
2022/07/03 10:53:42;;;;;;;9.20;5.07;;;;;;;;;;5027946;28;20467;-78
2022/07/03 10:56:08;;;;;;;10.80;5.32;;;;;;;;;;5010258;28;20420;-78
2022/07/03 10:58:54;;;;;;;10.38;5.47;;;;;;;;;;5019899;28;20021;-76
2022/07/03 11:01:27;;;;;;;10.48;5.88;;;;;;;;;;5018199;28;20026;-78
2022/07/03 11:04:00;;;;;;;7.90;5.30;;;;;;;;;;5016605;28;20040;-78
2022/07/03 11:06:44;;;;;;;11.20;5.90;;;;;;;;;;5033021;28;20101;-77
2022/07/03 11:09:12;;;;;;;11.10;5.03;;;;;;;;;;5034154;28;20492;-77
2022/07/03 11:11:57;;;;;;;11.23;5.28;;;;;;;;;;5011881;28;20034;-79
2022/07/03 11:14:30;;;;;;;11.38;4.90;;;;;;;;;;5009564;28;20029;-80
2022/07/03 11:17:15;;;;;;;13.07;4.70;;;;;;;;;;5002549;28;20147;-78
2022/07/03 11:19:41;;;;;;;9.90;5.10;;;;;;;;;;5015360;28;20033;-77
2022/07/03 11:22:12;;;;;;;9.65;5.00;;;;;;;;;;5020362;28;20033;-76
2022/07/03 11:24:39;;;;;;;14.13;6.30;;;;;;;;;;5015531;28;20091;-77
2022/07/03 11:27:12;;;;;;;16.15;6.45;;;;;;;;;;5015735;28;20103;-77
2022/07/03 11:29:38;;;;;;;11.25;6.70;;;;;;;;;;5015828;28;20483;-77
2022/07/03 11:32:23;;;;;;;10.90;5.60;;;;;;;;;;5015852;28;20072;-76
2022/07/03 11:34:49;;;;;;;10.85;5.38;;;;;;;;;;5012661;28;20477;-76
2022/07/03 11:37:21;;;;;;;8.93;6.47;;;;;;;;;;5030173;28;20029;-77
2022/07/03 11:39:49;;;;;;;10.25;5.90;;;;;;;;;;5033677;28;20033;-78
2022/07/03 11:42:17;;;;;;;12.27;6.80;;;;;;;;;;5015592;28;20028;-78
2022/07/03 11:44:43;;;;;;;12.07;6.53;;;;;;;;;;5033738;28;20036;-77
2022/07/03 11:47:10;;;;;;;9.27;6.05;;;;;;;;;;5015583;28;20028;-77
2022/07/03 11:49:38;;;;;;;12.77;7.03;;;;;;;;;;5012299;28;20169;-76
2022/07/03 11:52:04;;;;;;;9.82;6.32;;;;;;;;;;5025893;28;20560;-77
2022/07/03 11:54:49;;;;;;;8.30;6.88;;;;;;;;;;5028684;28;20041;-78
2022/07/03 11:57:15;;;;;;;13.43;6.70;;;;;;;;;;5026455;28;20022;-79
2022/07/03 11:59:42;;;;;;;9.02;6.07;;;;;;;;;;5015286;28;20030;-78
2022/07/03 12:02:08;;;;;;;14.70;6.70;;;;;;;;;;5033541;28;20032;-79
2022/07/03 12:04:34;;;;;;;10.95;6.20;;;;;;;;;;5032799;28;20064;-78
2022/07/03 12:07:01;;;;;;;15.68;7.60;;;;;;;;;;5033075;28;20040;-78
2022/07/03 12:09:34;;;;;;;7.20;5.85;;;;;;;;;;5001433;28;20018;-78
2022/07/03 12:12:00;;;;;;;12.68;6.18;;;;;;;;;;5006758;28;20030;-78
2022/07/03 12:14:46;;;;;;;12.55;7.32;;;;;;;;;;5027657;28;20028;-78
2022/07/03 12:17:13;;;;;;;10.38;5.32;;;;;;;;;;5014773;28;20423;-79
2022/07/03 12:19:45;;;;;;;10.25;5.88;;;;;;;;;;5014700;28;20026;-79
2022/07/03 12:22:11;;;;;;;9.13;6.10;;;;;;;;;;5032666;28;20017;-80
2022/07/03 12:24:37;;;;;;;7.35;5.15;;;;;;;;;;5018417;28;20038;-78
2022/07/03 12:27:04;;;;;;;7.32;4.63;;;;;;;;;;5032662;28;20017;-80
2022/07/03 12:29:31;;;;;;;9.52;4.93;;;;;;;;;;5032680;28;20018;-80
2022/07/03 12:31:57;;;;;;;8.95;5.82;;;;;;;;;;5027689;28;20595;-80
2022/07/03 12:34:23;;;;;;;7.97;5.03;;;;;;;;;;5032657;28;20017;-79
2022/07/03 12:36:59;;;;;;;8.65;4.90;;;871.30;256.00;;;;;;5014776;28;20053;-80
2022/07/03 12:40:00;;;;;;;7.43;5.07;;;871.10;256.00;;;;;;5001319;28;20025;-80
2022/07/03 12:42:26;;;;;;;10.80;6.07;;;871.20;256.00;;;;;;4916500;29;20110;-80
2022/07/03 12:45:00;;;;;;;8.55;5.07;;;871.20;256.00;;;;;;4994772;28;20140;-80
2022/07/03 12:47:27;;;;;;;9.85;5.32;;;871.30;256.00;;;;;;5015025;28;20384;-80
2022/07/03 12:50:04;;;;;;;12.20;4.97;;;;;;;;;;5014834;28;20041;-80
2022/07/03 12:52:31;;;;;;;11.65;4.97;;;;;;;;;;5014655;28;20021;-81
2022/07/03 12:54:57;;;;;;;9.52;5.63;;;;;;;;;;5014591;28;20477;-83
2022/07/03 13:00:09;;;;;;;12.18;5.28;;;;;;;;;;5023777;28;20064;-83
2022/07/03 13:02:36;;;;;;;10.27;5.35;;;;;;;;;;4999354;28;20026;-79
2022/07/03 13:05:13;;;;;;;9.98;5.63;;;;;;;;;;5007487;28;20469;-84
2022/07/03 13:07:43;;;;;;;10.68;5.43;;;;;;;;;;4996483;28;20068;-84
2022/07/03 13:10:09;;;;;;;9.02;5.95;;;;;;;;;;5015285;28;20030;-83
2022/07/03 13:12:35;;;;;;;11.90;5.63;;;;;;;;;;5013899;28;20018;-85
2022/07/03 13:15:02;;;;;;;8.60;4.78;;;922.40;281.60;;;;;;4998717;28;20112;-84
2022/07/03 13:17:47;;;;;;;8.40;5.72;;;;;;;;;;5014896;28;20048;-83
2022/07/03 13:20:13;;;;;;;7.32;4.60;;;;;;;;;;5023854;28;20013;-83
2022/07/03 13:22:39;;;;;;;8.63;4.90;;;;;;;;;;5005170;28;20030;-84
2022/07/03 13:25:05;;;;;;;8.68;4.90;;;1024.90;332.80;;;;;;5008667;28;20065;-84
2022/07/03 13:27:30;;;;;;;11.07;5.40;;;1049.90;358.40;;;;;;5020120;28;20052;-83
2022/07/03 13:29:56;;;;;;;7.80;4.90;;;;;;;;;;5012929;28;20025;-84
2022/07/03 13:32:22;;;;;;;9.15;5.18;;;;;;;;;;5001932;28;20109;-84
2022/07/03 13:34:48;;;;;;;6.97;4.30;;;;;;;;;;5008693;28;20021;-84
2022/07/03 13:37:14;;;;;;;11.23;4.35;;;1152.50;409.60;;;;;;5008121;28;20066;-84
2022/07/03 13:39:39;;;;;;;7.60;4.63;;;1177.70;409.60;;;;;;5006092;28;20075;-83
2022/07/03 13:42:10;;;;;;;5.28;3.47;;;1203.20;435.20;;;;;;5003787;28;20021;-83
2022/07/03 13:44:36;;;;;;;8.38;4.15;;;;;;;;;;5004931;28;20033;-83
2022/07/03 13:47:02;;;;;;;13.95;4.50;;;;;;;;;;4999365;28;20028;-81
2022/07/03 13:49:28;;;;;;;6.25;4.10;;;1229.20;460.80;;;;;;5004131;28;20113;-82
2022/07/03 13:51:53;;;;;;;6.63;4.43;;;1229.70;460.80;;;;;;5002909;28;20117;-83
2022/07/03 13:54:19;;;;;;;8.00;4.03;;;1254.80;486.40;;;;;;5001969;28;20417;-84
2022/07/03 13:56:46;;;;;;;6.88;4.35;;;;;;;;;;5006697;28;20081;-82
2022/07/03 13:59:12;;;;;;;8.50;4.70;;;;;;;;;;5003372;28;20088;-84
2022/07/03 14:01:37;;;;;;;12.38;5.25;;;1204.10;435.20;;;;;;5013856;28;20021;-81
2022/07/03 14:04:03;;;;;;;7.68;5.20;;;1076.00;358.40;;;;;;5005262;28;20113;-83
2022/07/03 14:06:29;;;;;;;5.78;5.18;;;1049.60;358.40;;;;;;5003102;28;20097;-83
2022/07/03 14:08:55;;;;;;;12.02;5.70;;;1049.70;358.40;;;;;;5007350;28;20029;-83
2022/07/03 14:11:21;;;;;;;10.18;4.85;;;1024.80;332.80;;;;;;5009037;28;20026;-84
2022/07/03 14:13:46;;;;;;;7.43;5.93;;;973.60;307.20;;;;;;5008968;28;20032;-82
2022/07/03 14:16:12;;;;;;;11.57;6.47;;;972.80;307.20;;;;;;5013978;28;20037;-82
2022/07/03 14:18:38;;;;;;;22.20;6.38;;;972.80;307.20;;;;;;5012357;28;20034;-83